createdAt,value
2023-09-11T00:02:26.017Z,1016.6766261603568
2023-09-11T00:06:04.030Z,1016.679795574274
2023-09-11T00:12:14.462Z,1016.6089678478158
2023-09-11T00:15:33.948Z,1016.5820263486457
2023-09-11T00:18:53.989Z,1016.5545565901207
2023-09-11T00:22:13.976Z,1016.5257853327021
2023-09-11T00:26:49.103Z,1016.4971519841773
2023-09-11T00:30:08.956Z,1016.4870205364763
2023-09-11T00:33:29.144Z,1016.4440724049228
2023-09-11T00:36:49.126Z,1016.4025525059262
2023-09-11T00:40:08.787Z,1016.3666267608739
2023-09-11T00:47:53.131Z,1016.2728812009277
2023-09-11T00:51:12.771Z,1016.1963970131485
2023-09-11T00:54:31.525Z,1016.1448799578351
2023-09-11T00:57:50.609Z,1016.1157396471032
2023-09-11T01:01:10.177Z,1016.1028639980701
2023-09-11T01:04:30.255Z,1016.055546499541
2023-09-11T01:10:12.875Z,1015.9898170500435
2023-09-11T01:13:32.507Z,1015.9663081221167
2023-09-11T01:16:52.702Z,1015.9415649806022
2023-09-11T01:20:13.010Z,1015.9059439166251
2023-09-11T01:23:32.639Z,1015.8802939936805
2023-09-11T01:26:52.516Z,1015.8467557123782
2023-09-11T01:30:11.730Z,1015.8594888230864
2023-09-11T01:37:52.966Z,1015.862874929039
2023-09-11T01:43:35.208Z,1015.8688768291781
2023-09-11T01:46:54.300Z,1015.863838738269
2023-09-11T01:50:14.161Z,1015.8293877783075
2023-09-11T01:53:33.576Z,1015.8219577894678
2023-09-11T01:56:54.036Z,1015.830684401498
2023-09-11T02:00:14.252Z,1015.8302636499516
2023-09-11T02:03:34.278Z,1015.854348156073
2023-09-11T02:06:54.219Z,1015.8666546655126
2023-09-11T02:11:50.617Z,1015.7821106024037
2023-09-11T02:15:10.113Z,1015.7556363374615
2023-09-11T02:18:29.951Z,1015.7513514881889
2023-09-11T02:21:49.272Z,1015.7553875232637
2023-09-11T02:25:08.949Z,1015.7243154482602
2023-09-11T02:28:28.953Z,1015.6837664190223
2023-09-11T02:31:51.799Z,1015.6523303736401
2023-09-11T02:35:11.655Z,1015.6386598645314
2023-09-11T02:38:31.556Z,1015.6279044742803
2023-09-11T02:47:57.975Z,1015.600133557676
2023-09-11T02:51:17.932Z,1015.5583112418682
2023-09-11T02:56:31.601Z,1015.5103028977447
2023-09-11T02:59:51.568Z,1015.4794903214739
2023-09-11T03:03:11.577Z,1015.4407342319065
2023-09-11T03:06:31.639Z,1015.4120376543208
2023-09-11T03:09:51.526Z,1015.397437534431
2023-09-11T03:13:11.444Z,1015.4010443987834
2023-09-11T03:16:31.153Z,1015.3793928697031
2023-09-11T03:19:50.653Z,1015.3648511258147
2023-09-11T03:26:55.991Z,1015.3041099804371
2023-09-11T03:30:15.596Z,1015.2671059507591
2023-09-11T03:36:15.511Z,1015.2306234476131
2023-09-11T03:39:52.820Z,1015.1922600550597
2023-09-11T03:43:12.087Z,1015.1930054945618
2023-09-11T03:46:32.116Z,1015.197473095521
2023-09-11T03:53:49.761Z,1015.1014109748404
2023-09-11T03:57:09.207Z,1015.0506930617742
2023-09-11T04:00:28.683Z,1015.0398815106437
2023-09-11T04:03:48.084Z,1015.0481259643079
2023-09-11T04:07:07.654Z,1015.0085302731593
2023-09-11T04:11:50.260Z,1014.9948993031837
2023-09-11T04:16:35.289Z,1014.9843859223458
2023-09-11T04:21:42.331Z,1014.9705380433899
2023-09-11T04:25:02.168Z,1014.937993996759
2023-09-11T04:28:41.280Z,1014.9249175413023
2023-09-11T04:32:01.341Z,1014.8912989354234
2023-09-11T04:35:20.979Z,1014.8639011004187
2023-09-11T04:38:40.991Z,1014.8676308162508
2023-09-11T04:42:00.805Z,1014.8564339775202
2023-09-11T04:45:20.753Z,1014.8355490089066
2023-09-11T04:48:39.937Z,1014.8235668492784
2023-09-11T04:51:59.726Z,1014.8088217947965
2023-09-11T04:55:19.510Z,1014.7794477980431
2023-09-11T04:59:26.441Z,1014.761730137382
2023-09-11T05:02:46.495Z,1014.7760413457083
2023-09-11T05:06:06.286Z,1014.7988862472392
2023-09-11T05:09:25.968Z,1014.8136275076845
2023-09-11T05:12:45.327Z,1014.8308133736474
2023-09-11T05:16:05.655Z,1014.8549344445967
2023-09-11T05:19:25.215Z,1014.8349765180964
2023-09-11T05:22:50.100Z,1014.8161273317202
2023-09-11T05:26:09.969Z,1014.8102139293112
2023-09-11T05:29:29.811Z,1014.8192409045128
2023-09-11T05:32:49.515Z,1014.800853000126
2023-09-11T05:36:09.412Z,1014.7788917718923
2023-09-11T05:39:29.003Z,1014.7788514262892
2023-09-11T05:42:50.056Z,1014.7622561328177
2023-09-11T05:46:09.112Z,1014.7630166035952
2023-09-11T05:49:28.956Z,1014.7795218929436
2023-09-11T05:52:49.314Z,1014.7718290970076
2023-09-11T05:56:08.950Z,1014.7471003374442
2023-09-11T05:59:28.038Z,1014.7438983857695
2023-09-11T06:02:48.130Z,1014.7738894114981
2023-09-11T06:11:43.646Z,1014.8228197014035
2023-09-11T06:15:03.842Z,1014.8392527720996
2023-09-11T06:18:23.489Z,1014.8601838607142
2023-09-11T06:21:42.924Z,1014.843970627867
2023-09-11T06:29:44.182Z,1014.877321043336
2023-09-11T06:33:04.518Z,1014.8719711296359
2023-09-11T06:36:23.815Z,1014.8969726843188
2023-09-11T06:39:43.602Z,1014.9091896851842
2023-09-11T06:43:03.810Z,1014.8778865421488
2023-09-11T06:46:23.906Z,1014.8558710903836
2023-09-11T06:49:43.768Z,1014.8064332756047
2023-09-11T06:53:03.895Z,1014.7567280954543
2023-09-11T06:56:23.740Z,1014.7819134549479
2023-09-11T06:59:43.454Z,1014.7729610176159
2023-09-11T07:04:01.266Z,1014.753147253684
2023-09-11T07:07:20.835Z,1014.7444399146882
2023-09-11T07:10:41.942Z,1014.7609547831106
2023-09-11T07:16:42.704Z,1014.7520625434194
2023-09-11T07:20:02.382Z,1014.7482010495357
2023-09-11T07:23:22.472Z,1014.7380984765784
2023-09-11T07:26:42.011Z,1014.7191849601087
2023-09-11T07:30:01.060Z,1014.6694007069433
2023-09-11T07:34:24.708Z,1014.6075444449497
2023-09-11T07:37:45.149Z,1014.5995008962494
2023-09-11T07:41:05.072Z,1014.606847020949
2023-09-11T07:44:24.880Z,1014.5337754321754
2023-09-11T07:47:44.374Z,1014.5138265659514
2023-09-11T07:51:03.945Z,1014.4780534193081
2023-09-11T07:54:23.387Z,1014.4265825524238
2023-09-11T07:57:42.872Z,1014.3761703122402
2023-09-11T08:01:02.656Z,1014.3424579483951
2023-09-11T08:07:48.137Z,1014.3354381593763
2023-09-11T08:11:08.032Z,1014.3521798656528
2023-09-11T08:14:28.029Z,1014.4009614744396
2023-09-11T08:17:48.313Z,1014.4018316791573
2023-09-11T08:21:08.034Z,1014.3889998946089
2023-09-11T08:24:27.669Z,1014.3928652354344
2023-09-11T08:27:47.644Z,1014.3633971331852
2023-09-11T08:31:06.787Z,1014.337868579243
2023-09-11T08:34:26.409Z,1014.3366909944128
2023-09-11T08:37:46.630Z,1014.3370976642309
2023-09-11T08:42:38.341Z,1014.3772325769206
2023-09-11T08:45:58.571Z,1014.3857686502467
2023-09-11T08:49:17.384Z,1014.3975835196309
2023-09-11T08:52:36.670Z,1014.4187871233697
2023-09-11T08:55:56.941Z,1014.397271810939
2023-09-11T08:59:17.600Z,1014.3757060585564
2023-09-11T09:03:59.209Z,1014.310878226994
2023-09-11T09:07:18.744Z,1014.3130152488019
2023-09-11T09:10:38.201Z,1014.3085047243964
2023-09-11T09:13:58.094Z,1014.2766338653134
2023-09-11T09:17:17.970Z,1014.2439681976875
2023-09-11T09:22:54.955Z,1014.1975539923465
2023-09-11T09:26:15.856Z,1014.1670187764685
2023-09-11T09:29:50.817Z,1014.1408148964534
2023-09-11T09:33:10.696Z,1014.1333335983688
2023-09-11T09:36:30.784Z,1014.1330610737645
2023-09-11T09:39:50.773Z,1014.082162528478
2023-09-11T09:43:10.347Z,1014.0263334559552
2023-09-11T09:49:01.695Z,1013.9688891593639
2023-09-11T09:52:21.255Z,1013.9491303957703
2023-09-11T09:59:51.155Z,1013.8494738601858
2023-09-11T10:05:01.637Z,1013.8090249133611
2023-09-11T10:08:21.263Z,1013.7975763870351
2023-09-11T10:11:40.746Z,1013.7407943187328
2023-09-11T10:15:00.747Z,1013.7266895920568
2023-09-11T10:18:19.960Z,1013.7018030436224
2023-09-11T10:21:39.974Z,1013.6418164833152
2023-09-11T10:26:26.791Z,1013.6232253511625
2023-09-11T10:29:46.935Z,1013.5890708126005
2023-09-11T10:33:07.029Z,1013.5709627285307
2023-09-11T10:38:12.124Z,1013.5307951466963
2023-09-11T10:42:23.322Z,1013.5010188145019
2023-09-11T10:45:57.743Z,1013.4499704217787
2023-09-11T10:49:17.098Z,1013.4079335481528
2023-09-11T10:53:12.527Z,1013.323820541854
2023-09-11T10:56:31.796Z,1013.2904988943537
2023-09-11T10:59:51.280Z,1013.2451196779673
2023-09-11T11:03:10.895Z,1013.2028001805991
2023-09-11T11:06:30.842Z,1013.1711435374035
2023-09-11T11:09:51.094Z,1013.1330054788216
2023-09-11T11:13:11.005Z,1013.0995000534181
2023-09-11T11:16:30.718Z,1013.0850045768633
2023-09-11T11:21:30.717Z,1013.0644868583676
2023-09-11T11:24:49.581Z,1013.0305712204081
2023-09-11T11:28:09.351Z,1013.0386879610362
2023-09-11T11:32:49.734Z,1013.0318540173142
2023-09-11T11:36:09.962Z,1013.0362142255063
2023-09-11T11:39:29.400Z,1013.0224871197563
2023-09-11T11:42:48.991Z,1012.997510019361
2023-09-11T11:46:08.451Z,1012.9702992722919
2023-09-11T11:49:28.041Z,1012.8911954460779
2023-09-11T11:52:47.993Z,1012.8992218428026
2023-09-11T11:57:39.754Z,1012.8935172501201
2023-09-11T12:00:59.535Z,1012.9013352938076
2023-09-11T12:04:32.129Z,1012.8979683432866
2023-09-11T12:07:58.451Z,1012.8526037895543
2023-09-11T12:11:21.218Z,1012.8510900947125
2023-09-11T12:14:40.617Z,1012.8331194712465
2023-09-11T12:18:00.266Z,1012.8074783305022
2023-09-11T12:22:06.729Z,1012.7455018095357
2023-09-11T12:25:27.971Z,1012.7174228558482
2023-09-11T12:28:48.017Z,1012.7207658743234
2023-09-11T12:32:08.026Z,1012.691290743028
2023-09-11T12:35:27.906Z,1012.6530478217203
2023-09-11T12:38:46.876Z,1012.6357321988704
2023-09-11T12:42:06.475Z,1012.6621759654337
2023-09-11T12:45:25.200Z,1012.690609744918
2023-09-11T12:48:45.768Z,1012.707376480192
2023-09-11T12:52:05.591Z,1012.7033120792998
2023-09-11T12:55:25.261Z,1012.6785735580457
2023-09-11T12:58:44.590Z,1012.6829302719766
2023-09-11T13:02:04.085Z,1012.7022609698304
2023-09-11T13:06:48.479Z,1012.6570303612568
2023-09-11T13:13:05.405Z,1012.620251490197
2023-09-11T13:16:24.313Z,1012.6203453875744
2023-09-11T13:19:43.852Z,1012.5855694606608
2023-09-11T13:23:03.324Z,1012.5841511847868
2023-09-11T13:26:22.795Z,1012.5478015849503
2023-09-11T13:29:42.535Z,1012.5240865497459
2023-09-11T13:33:02.644Z,1012.5197103090118
2023-09-11T13:36:21.437Z,1012.4908996723079
2023-09-11T13:39:40.911Z,1012.4641975798668
2023-09-11T13:44:29.664Z,1012.4425302444752
2023-09-11T13:47:49.434Z,1012.4195329019842
2023-09-11T13:51:09.278Z,1012.4141424176728
2023-09-11T13:54:28.291Z,1012.3799844201938
2023-09-11T14:00:33.153Z,1012.3564444293829
2023-09-11T14:03:53.128Z,1012.3293281369536
2023-09-11T14:07:12.407Z,1012.2926818145236
2023-09-11T14:12:21.302Z,1012.2014712987867
2023-09-11T14:15:40.809Z,1012.1759287022228
2023-09-11T14:21:19.996Z,1012.175338384636
2023-09-11T14:24:39.141Z,1012.1720996024316
2023-09-11T14:27:59.213Z,1012.1657895105252
2023-09-11T14:31:18.706Z,1012.1740552753375
2023-09-11T14:34:38.896Z,1012.1643868279513
2023-09-11T14:37:57.950Z,1012.1440415765998
2023-09-11T14:41:17.545Z,1012.0822148110688
2023-09-11T14:44:37.306Z,1012.0681143516672
2023-09-11T14:47:57.480Z,1012.0561730468052
2023-09-11T14:51:16.900Z,1012.0495832283727
2023-09-11T14:54:51.227Z,1012.0507738976514
2023-09-11T14:58:13.544Z,1012.019410920618
2023-09-11T15:01:33.413Z,1012.0261156443378
2023-09-11T15:04:53.078Z,1012.0096683234812
2023-09-11T15:08:13.290Z,1012.0008084767696
2023-09-11T15:11:32.394Z,1011.972352315921
2023-09-11T15:14:52.180Z,1011.9320212132028
2023-09-11T15:18:12.399Z,1011.9146345557347
2023-09-11T15:21:32.319Z,1011.9073370977568
2023-09-11T15:24:52.419Z,1011.895734211177
2023-09-11T15:28:12.098Z,1011.892402006774
2023-09-11T15:34:26.769Z,1011.8617949376555
2023-09-11T15:37:46.491Z,1011.8306241907189
2023-09-11T15:41:05.824Z,1011.8417966792438
2023-09-11T15:44:25.730Z,1011.8295457449798
2023-09-11T15:47:45.497Z,1011.8296632669042
2023-09-11T15:51:05.379Z,1011.8240467093455
2023-09-11T15:54:25.004Z,1011.8322142494876
2023-09-11T15:58:32.551Z,1011.7916758001652
2023-09-11T16:01:52.133Z,1011.7875091310857
2023-09-11T16:07:03.117Z,1011.7933729630809
2023-09-11T16:10:22.692Z,1011.8079409212424
2023-09-11T16:13:41.473Z,1011.8266301268726
2023-09-11T16:17:01.532Z,1011.8436207634666
2023-09-11T16:20:20.909Z,1011.8489203889924
2023-09-11T16:23:40.284Z,1011.8537602816359
2023-09-11T16:26:59.178Z,1011.8516417084636
2023-09-11T16:30:18.744Z,1011.8570323508864
2023-09-11T16:43:03.055Z,1011.9133651880844
2023-09-11T16:46:22.825Z,1011.9372058259067
2023-09-11T16:49:42.184Z,1011.915953683984
2023-09-11T16:53:02.278Z,1011.8994955766777
2023-09-11T16:56:21.459Z,1011.8890772020264
2023-09-11T16:59:41.336Z,1011.9083297829194
2023-09-11T17:03:01.697Z,1011.9356536823578
2023-09-11T17:06:21.371Z,1011.986084476487
2023-09-11T17:09:41.292Z,1012.0195019407416
2023-09-11T17:13:01.615Z,1012.0518059800444
2023-09-11T17:16:21.107Z,1012.0713779236438
2023-09-11T17:19:40.779Z,1012.0880853371381
2023-09-11T17:23:00.669Z,1012.1017544914188
2023-09-11T17:26:28.805Z,1012.1307825868728
2023-09-11T17:29:48.964Z,1012.1279999180812
2023-09-11T17:33:10.604Z,1012.1310623399941
2023-09-11T17:36:32.306Z,1012.1479544930432
2023-09-11T17:39:51.924Z,1012.181040371968
2023-09-11T17:43:11.200Z,1012.200479949134
2023-09-11T17:46:30.987Z,1012.2094795895731
2023-09-11T17:49:51.050Z,1012.2389873166255
2023-09-11T17:53:10.328Z,1012.2996662215993
2023-09-11T17:56:29.510Z,1012.3044643830422
2023-09-11T17:59:48.720Z,1012.3381181758873
2023-09-11T18:03:08.648Z,1012.3399658149536
2023-09-11T18:06:28.387Z,1012.348460985507
2023-09-11T18:12:04.217Z,1012.3406389598048
2023-09-11T18:15:24.223Z,1012.3667819254406
2023-09-11T18:21:20.723Z,1012.4213319899222
2023-09-11T18:24:40.230Z,1012.4852315129793
2023-09-11T18:28:00.454Z,1012.5336386612329
2023-09-11T18:33:54.260Z,1012.5723256013586
2023-09-11T18:37:13.782Z,1012.5955222432646
2023-09-11T18:40:33.364Z,1012.6198517450844
2023-09-11T18:43:53.365Z,1012.6724126470198
2023-09-11T18:47:13.124Z,1012.7174683796733
2023-09-11T18:50:32.189Z,1012.7904930208983
2023-09-11T18:53:52.296Z,1012.8739191470236
2023-09-11T18:57:11.073Z,1012.8971812325317
2023-09-11T19:00:30.861Z,1013.0007152717642
2023-09-11T19:06:55.226Z,1013.1041398191059
2023-09-11T19:10:14.391Z,1013.131905582135
2023-09-11T19:13:34.085Z,1013.1467354125286
2023-09-11T19:16:59.381Z,1013.15725228085
2023-09-11T19:20:18.858Z,1013.1644418702584
2023-09-11T19:24:00.913Z,1013.1989600865818
2023-09-11T19:29:00.072Z,1013.2084729919308
2023-09-11T19:38:46.040Z,1013.2681457465844
2023-09-11T19:51:59.296Z,1013.3176948634383
2023-09-11T19:57:08.773Z,1013.3620090189901
2023-09-11T20:03:07.310Z,1013.3568516872253
2023-09-11T20:06:27.591Z,1013.3359022252881
2023-09-11T20:09:47.694Z,1013.3332228554387
2023-09-11T20:13:07.219Z,1013.3300346714979
2023-09-11T20:16:26.016Z,1013.3171379695019
2023-09-11T20:19:46.014Z,1013.3041508909404
2023-09-11T20:23:06.140Z,1013.2674950331697
2023-09-11T20:26:25.945Z,1013.2268269189952
2023-09-11T20:31:46.210Z,1013.1829520266498
2023-09-11T20:35:47.220Z,1013.1521361895628
2023-09-11T20:39:07.503Z,1013.0677439017057
2023-09-11T20:42:27.695Z,1012.9873475117906
2023-09-11T20:45:47.323Z,1013.0171592081274
2023-09-11T20:49:07.227Z,1013.0882676838776
2023-09-11T20:52:26.605Z,1013.1009234273306
2023-09-11T20:55:45.980Z,1013.0764911052519
2023-09-11T20:59:05.852Z,1013.0074333008246
2023-09-11T21:03:45.338Z,1012.939439732563
2023-09-11T21:07:57.212Z,1012.9546085185336
2023-09-11T21:11:16.597Z,1013.0242573397405
2023-09-11T21:14:36.274Z,1013.1937363284197
2023-09-11T21:17:56.527Z,1013.1874933962399
2023-09-11T21:21:16.409Z,1013.222802249626
2023-09-11T21:24:44.320Z,1013.241819537752
2023-09-11T21:28:03.285Z,1013.2818270332409
2023-09-11T21:31:23.174Z,1013.2729324343996
2023-09-11T21:34:43.155Z,1013.2228666568685
2023-09-11T21:38:03.235Z,1013.1938137585911
2023-09-11T21:45:12.639Z,1013.2134437307938
2023-09-11T21:53:05.500Z,1013.2519847663444
2023-09-11T21:56:25.074Z,1013.2564566567288
2023-09-11T21:59:45.179Z,1013.2514166107937
2023-09-11T22:03:05.499Z,1013.2990465228327
2023-09-11T22:06:46.026Z,1013.3782261288645
2023-09-11T22:10:05.895Z,1013.4628876288727
2023-09-11T22:13:25.165Z,1013.465646937774
2023-09-11T22:16:44.600Z,1013.4322710418318
2023-09-11T22:20:05.755Z,1013.4435201059031
2023-09-11T22:23:40.961Z,1013.5827116612124
2023-09-11T22:30:19.174Z,1013.5851637319516
2023-09-11T22:36:23.597Z,1013.6746699430737
2023-09-11T22:39:43.162Z,1013.679508741385
2023-09-11T22:43:03.454Z,1013.7567899203244
2023-09-11T22:46:23.478Z,1013.8155068003273
2023-09-11T22:49:43.100Z,1013.8816262298069
2023-09-11T22:53:03.179Z,1013.9880929831959
2023-09-11T22:56:23.072Z,1014.0271700232267
2023-09-11T22:59:42.558Z,1014.0603872914089
2023-09-11T23:03:02.126Z,1014.0504090954921
2023-09-11T23:06:22.247Z,1014.1319467992627
2023-09-11T23:09:41.683Z,1014.1807789514211
2023-09-11T23:13:01.381Z,1014.1663380404445
2023-09-11T23:16:20.871Z,1014.170462420038
2023-09-11T23:19:40.621Z,1014.2014542936823
2023-09-11T23:23:00.719Z,1014.1848960628904
2023-09-11T23:26:19.582Z,1014.1379384962348
2023-09-11T23:29:39.054Z,1014.1070047452799
2023-09-11T23:32:59.456Z,1014.1163814117625
2023-09-11T23:38:33.059Z,1014.0809621259662
2023-09-11T23:41:53.664Z,1014.0005338219346
2023-09-11T23:45:13.078Z,1013.9743653280241
2023-09-11T23:48:32.961Z,1013.9585395284572
2023-09-11T23:51:53.010Z,1013.9117657917103
2023-09-11T23:55:12.548Z,1013.820662597521
2023-09-11T23:58:32.381Z,1013.7376135195833
